createdAt,value
2018-06-18T00:00:44.406Z,0.00
2018-06-18T00:01:44.358Z,0.00
2018-06-18T00:02:44.362Z,0.00
2018-06-18T00:03:44.308Z,0.00
2018-06-18T00:04:44.260Z,0.00
2018-06-18T00:05:44.246Z,0.00
2018-06-18T00:06:44.227Z,0.00
2018-06-18T00:07:44.249Z,0.00
2018-06-18T00:08:44.153Z,0.00
2018-06-18T00:09:44.219Z,0.00
2018-06-18T00:10:44.053Z,0.00
2018-06-18T00:11:44.058Z,0.00
2018-06-18T00:12:44.002Z,0.00
2018-06-18T00:13:44.017Z,0.00
2018-06-18T00:14:43.935Z,0.00
2018-06-18T00:15:43.953Z,0.00
2018-06-18T00:16:43.846Z,0.00
2018-06-18T00:17:43.807Z,0.00
2018-06-18T00:18:43.762Z,0.00
2018-06-18T00:19:43.746Z,0.00
2018-06-18T00:20:43.693Z,0.00
2018-06-18T00:21:43.684Z,0.00
2018-06-18T00:22:43.644Z,0.00
2018-06-18T00:23:43.612Z,0.00
2018-06-18T00:24:43.562Z,0.00
2018-06-18T00:25:43.545Z,0.00
2018-06-18T00:26:43.525Z,0.00
2018-06-18T00:27:43.474Z,0.00
2018-06-18T00:28:43.425Z,0.00
2018-06-18T00:29:43.400Z,0.00
2018-06-18T00:30:43.367Z,0.00
2018-06-18T00:31:43.329Z,0.00
2018-06-18T00:32:43.279Z,0.00
2018-06-18T00:33:43.298Z,0.00
2018-06-18T00:34:43.190Z,0.00
2018-06-18T00:35:43.193Z,0.00
2018-06-18T00:36:43.147Z,0.00
2018-06-18T00:37:43.117Z,0.00
2018-06-18T00:38:43.961Z,0.00
2018-06-18T00:39:43.114Z,0.00
2018-06-18T00:40:43.080Z,0.00
2018-06-18T00:41:42.946Z,0.00
2018-06-18T00:42:42.956Z,0.00
2018-06-18T00:43:42.946Z,0.00
2018-06-18T00:44:42.874Z,0.00
2018-06-18T00:45:42.850Z,0.00
2018-06-18T00:46:42.785Z,0.00
2018-06-18T00:47:42.758Z,0.00
2018-06-18T00:48:42.700Z,0.00
2018-06-18T00:49:42.748Z,0.00
2018-06-18T00:50:42.651Z,0.00
2018-06-18T00:51:42.593Z,0.00
2018-06-18T00:52:42.619Z,0.00
2018-06-18T00:53:42.578Z,0.00
2018-06-18T00:54:42.512Z,0.00
2018-06-18T00:55:42.507Z,0.00
2018-06-18T00:56:42.459Z,0.00
2018-06-18T00:57:42.398Z,0.00
2018-06-18T00:58:42.380Z,0.00
2018-06-18T00:59:42.440Z,0.00
2018-06-18T01:00:42.325Z,0.00
2018-06-18T01:01:42.259Z,0.00
2018-06-18T01:02:42.204Z,0.00
2018-06-18T01:03:42.174Z,0.00
2018-06-18T01:04:42.159Z,0.00
2018-06-18T01:05:42.122Z,0.00
2018-06-18T01:06:42.083Z,0.00
2018-06-18T01:07:42.052Z,0.00
2018-06-18T01:08:42.011Z,0.00
2018-06-18T01:09:42.018Z,0.00
2018-06-18T01:10:41.938Z,0.00
2018-06-18T01:11:41.931Z,0.00
2018-06-18T01:12:41.887Z,0.00
2018-06-18T01:13:41.828Z,0.00
2018-06-18T01:14:41.829Z,0.00
2018-06-18T01:15:41.740Z,0.00
2018-06-18T01:16:41.753Z,0.00
2018-06-18T01:17:41.679Z,0.00
2018-06-18T01:18:41.650Z,0.00
2018-06-18T01:19:41.620Z,0.00
2018-06-18T01:20:41.589Z,0.00
2018-06-18T01:21:41.555Z,0.00
2018-06-18T01:22:41.525Z,0.00
2018-06-18T01:23:41.492Z,0.00
2018-06-18T01:24:41.476Z,0.00
2018-06-18T01:25:41.393Z,0.00
2018-06-18T01:26:41.381Z,0.00
2018-06-18T01:27:41.383Z,0.00
2018-06-18T01:28:41.291Z,0.00
2018-06-18T01:29:41.358Z,0.00
2018-06-18T01:30:41.228Z,0.00
2018-06-18T01:31:41.262Z,0.00
2018-06-18T01:32:41.164Z,0.00
2018-06-18T01:33:41.216Z,0.00
2018-06-18T01:34:41.112Z,0.00
2018-06-18T01:35:41.053Z,0.00
2018-06-18T01:36:41.048Z,0.00
2018-06-18T01:37:40.964Z,0.00
2018-06-18T01:38:40.968Z,0.00
2018-06-18T01:39:40.961Z,0.00
2018-06-18T01:40:40.890Z,0.00
2018-06-18T01:41:40.862Z,0.00
2018-06-18T01:42:40.815Z,0.00
2018-06-18T01:43:40.793Z,0.00
2018-06-18T01:44:40.783Z,0.00
2018-06-18T01:45:40.727Z,0.00
2018-06-18T01:46:40.712Z,0.00
2018-06-18T01:47:40.612Z,0.00
2018-06-18T01:48:40.638Z,0.00
2018-06-18T01:49:40.574Z,0.00
2018-06-18T01:50:40.557Z,0.00
2018-06-18T01:51:40.513Z,0.00
2018-06-18T01:52:40.467Z,0.00
2018-06-18T01:53:40.472Z,0.00
2018-06-18T01:54:40.451Z,0.00
2018-06-18T01:55:40.415Z,0.00
2018-06-18T01:56:40.315Z,0.00
2018-06-18T01:57:40.277Z,0.00
2018-06-18T01:58:40.274Z,0.00
2018-06-18T01:59:40.217Z,0.00
2018-06-18T02:00:40.182Z,0.00
2018-06-18T02:01:40.154Z,0.00
2018-06-18T02:02:40.129Z,0.00
2018-06-18T02:03:40.072Z,0.00
2018-06-18T02:04:40.034Z,0.00
2018-06-18T02:05:40.009Z,0.00
2018-06-18T02:06:39.952Z,0.00
2018-06-18T02:07:39.927Z,0.00
2018-06-18T02:08:39.920Z,0.00
2018-06-18T02:09:39.915Z,0.00
2018-06-18T02:10:39.828Z,0.00
2018-06-18T02:11:40.465Z,0.00
2018-06-18T02:12:39.821Z,0.00
2018-06-18T02:13:39.741Z,0.00
2018-06-18T02:14:39.680Z,0.00
2018-06-18T02:15:39.678Z,0.00
2018-06-18T02:16:39.632Z,4.00
2018-06-18T02:17:39.613Z,4.00
2018-06-18T02:18:39.564Z,4.00
2018-06-18T02:19:39.499Z,0.00
2018-06-18T02:20:39.491Z,4.00
2018-06-18T02:21:39.448Z,4.00
2018-06-18T02:22:39.393Z,4.00
2018-06-18T02:23:39.365Z,8.00
2018-06-18T02:24:39.373Z,4.00
2018-06-18T02:25:39.299Z,4.00
2018-06-18T02:26:39.262Z,8.00
2018-06-18T02:27:39.246Z,8.00
2018-06-18T02:28:39.197Z,12.00
2018-06-18T02:29:39.170Z,8.00
2018-06-18T02:30:39.134Z,12.00
2018-06-18T02:31:39.075Z,12.00
2018-06-18T02:32:39.073Z,12.00
2018-06-18T02:33:39.026Z,12.00
2018-06-18T02:34:39.051Z,12.00
2018-06-18T02:35:38.954Z,12.00
2018-06-18T02:36:38.905Z,16.00
2018-06-18T02:37:38.911Z,24.00
2018-06-18T02:38:38.898Z,24.00
2018-06-18T02:39:38.826Z,32.00
2018-06-18T02:40:38.770Z,40.00
2018-06-18T02:41:38.725Z,48.00
2018-06-18T02:42:38.701Z,60.00
2018-06-18T02:43:38.682Z,68.00
2018-06-18T02:44:38.652Z,80.00
2018-06-18T02:45:38.630Z,92.00
2018-06-18T02:46:38.554Z,104.00
2018-06-18T02:47:38.542Z,116.00
2018-06-18T02:48:38.512Z,136.00
2018-06-18T02:49:38.470Z,152.00
2018-06-18T02:50:38.474Z,164.00
2018-06-18T02:51:38.375Z,180.00
2018-06-18T02:52:38.403Z,184.00
2018-06-18T02:53:38.363Z,192.00
2018-06-18T02:54:38.276Z,196.00
2018-06-18T02:55:38.278Z,188.00
2018-06-18T02:56:38.227Z,176.00
2018-06-18T02:57:38.175Z,168.00
2018-06-18T02:58:38.145Z,172.00
2018-06-18T02:59:38.975Z,176.00
2018-06-18T03:00:38.082Z,184.00
2018-06-18T03:01:38.094Z,200.00
2018-06-18T03:02:37.989Z,216.00
2018-06-18T03:03:37.992Z,240.00
2018-06-18T03:04:37.951Z,264.00
2018-06-18T03:05:37.948Z,292.00
2018-06-18T03:06:37.900Z,316.00
2018-06-18T03:07:37.844Z,348.00
2018-06-18T03:08:37.777Z,388.00
2018-06-18T03:09:37.756Z,436.00
2018-06-18T03:10:37.732Z,496.00
2018-06-18T03:11:37.696Z,564.00
2018-06-18T03:12:37.644Z,644.00
2018-06-18T03:13:37.604Z,740.00
2018-06-18T03:14:37.595Z,836.00
2018-06-18T03:15:37.532Z,936.00
2018-06-18T03:16:37.515Z,1028.00
2018-06-18T03:17:37.488Z,1120.00
2018-06-18T03:18:37.436Z,1216.00
2018-06-18T03:19:37.489Z,1300.00
2018-06-18T03:20:37.357Z,1360.00
2018-06-18T03:21:37.352Z,1384.00
2018-06-18T03:22:37.306Z,1380.00
2018-06-18T03:23:37.276Z,1388.00
2018-06-18T03:24:37.239Z,1432.00
2018-06-18T03:25:37.238Z,1504.00
2018-06-18T03:26:37.215Z,1592.00
2018-06-18T03:27:37.157Z,1696.00
2018-06-18T03:28:37.124Z,1832.00
2018-06-18T03:29:37.119Z,1980.00
2018-06-18T03:30:37.000Z,2124.00
2018-06-18T03:31:36.996Z,2252.00
2018-06-18T03:32:37.002Z,2384.00
2018-06-18T03:33:36.910Z,2564.00
2018-06-18T03:34:36.890Z,2824.00
2018-06-18T03:35:36.877Z,3036.00
2018-06-18T03:36:36.858Z,3172.00
2018-06-18T03:37:36.819Z,3264.00
2018-06-18T03:38:36.784Z,3280.00
2018-06-18T03:39:36.734Z,3332.00
2018-06-18T03:40:36.765Z,3436.00
2018-06-18T03:41:36.664Z,3580.00
2018-06-18T03:42:36.590Z,3796.00
2018-06-18T03:43:36.582Z,4076.00
2018-06-18T03:44:36.554Z,4408.00
2018-06-18T03:45:36.509Z,4656.00
2018-06-18T03:46:36.468Z,4824.00
2018-06-18T03:47:36.448Z,4960.00
2018-06-18T03:48:36.405Z,5072.00
2018-06-18T03:49:36.355Z,5160.00
2018-06-18T03:50:36.335Z,5280.00
2018-06-18T03:51:36.309Z,5544.00
2018-06-18T03:52:36.246Z,5952.00
2018-06-18T03:53:36.240Z,6456.00
2018-06-18T03:54:36.199Z,6932.00
2018-06-18T03:55:36.152Z,7344.00
2018-06-18T03:56:36.110Z,7664.00
2018-06-18T03:57:36.096Z,7912.00
2018-06-18T03:58:36.075Z,8116.00
2018-06-18T03:59:36.017Z,8284.00
2018-06-18T04:00:35.960Z,8336.00
2018-06-18T04:01:35.949Z,8328.00
2018-06-18T04:02:35.921Z,8304.00
2018-06-18T04:03:35.887Z,8240.00
2018-06-18T04:04:35.823Z,8100.00
2018-06-18T04:05:35.879Z,8048.00
2018-06-18T04:06:35.757Z,8476.00
2018-06-18T04:07:35.731Z,8628.00
2018-06-18T04:08:35.733Z,8968.00
2018-06-18T04:09:35.721Z,8528.00
2018-06-18T04:10:35.676Z,8500.00
2018-06-18T04:11:35.633Z,8644.00
2018-06-18T04:12:35.546Z,10076.00
2018-06-18T04:13:35.535Z,8272.00
2018-06-18T04:14:35.510Z,8188.00
2018-06-18T04:15:35.460Z,7172.00
2018-06-18T04:16:35.450Z,7708.00
2018-06-18T04:17:35.415Z,8408.00
2018-06-18T04:18:35.352Z,9144.00
2018-06-18T04:19:35.354Z,9700.00
2018-06-18T04:20:35.309Z,10060.00
2018-06-18T04:21:35.269Z,10428.00
2018-06-18T04:22:35.220Z,10840.00
2018-06-18T04:23:35.190Z,11312.00
2018-06-18T04:24:35.160Z,11884.00
2018-06-18T04:25:35.109Z,12388.00
2018-06-18T04:26:35.093Z,12872.00
2018-06-18T04:27:35.075Z,13480.00
2018-06-18T04:28:35.010Z,15260.00
2018-06-18T04:29:34.991Z,18304.00
2018-06-18T04:30:34.942Z,18304.00
2018-06-18T04:31:34.967Z,13628.00
2018-06-18T04:32:34.975Z,13760.00
2018-06-18T04:33:34.847Z,20704.00
2018-06-18T04:34:34.797Z,21088.00
2018-06-18T04:35:34.836Z,21056.00
2018-06-18T04:36:34.761Z,21216.00
2018-06-18T04:37:34.744Z,21440.00
2018-06-18T04:38:34.679Z,21120.00
2018-06-18T04:39:34.670Z,20096.00
2018-06-18T04:40:35.510Z,19104.00
2018-06-18T04:41:34.593Z,19264.00
2018-06-18T04:42:34.579Z,13832.00
2018-06-18T04:43:34.560Z,17824.00
2018-06-18T04:44:34.514Z,11492.00
2018-06-18T04:45:34.443Z,9420.00
2018-06-18T04:46:34.447Z,9076.00
2018-06-18T04:47:34.395Z,8872.00
2018-06-18T04:48:34.373Z,8776.00
2018-06-18T04:49:34.335Z,8664.00
2018-06-18T04:50:34.321Z,8448.00
2018-06-18T04:51:34.268Z,8100.00
2018-06-18T04:52:34.228Z,7756.00
2018-06-18T04:53:34.200Z,7472.00
2018-06-18T04:54:34.197Z,7216.00
2018-06-18T04:55:34.137Z,7000.00
2018-06-18T04:56:34.284Z,6808.00
2018-06-18T04:57:34.082Z,6600.00
2018-06-18T04:58:34.062Z,6432.00
2018-06-18T04:59:34.044Z,6352.00
2018-06-18T05:00:33.983Z,6288.00
2018-06-18T05:01:33.952Z,6188.00
2018-06-18T05:02:33.972Z,6016.00
2018-06-18T05:03:33.871Z,5820.00
2018-06-18T05:04:33.848Z,5688.00
2018-06-18T05:05:33.817Z,5648.00
2018-06-18T05:06:33.770Z,5652.00
2018-06-18T05:07:33.809Z,5560.00
2018-06-18T05:08:33.722Z,5396.00
2018-06-18T05:09:33.670Z,5316.00
2018-06-18T05:10:33.642Z,5328.00
2018-06-18T05:11:33.633Z,5364.00
2018-06-18T05:12:33.628Z,5204.00
2018-06-18T05:13:33.570Z,4892.00
2018-06-18T05:14:33.538Z,4596.00
2018-06-18T05:15:33.491Z,4412.00
2018-06-18T05:16:33.471Z,4380.00
2018-06-18T05:17:33.428Z,4460.00
2018-06-18T05:18:33.424Z,4532.00
2018-06-18T05:19:33.365Z,4540.00
2018-06-18T05:20:33.358Z,4512.00
2018-06-18T05:21:33.301Z,4572.00
2018-06-18T05:22:33.271Z,4668.00
2018-06-18T05:23:33.292Z,4764.00
2018-06-18T05:24:33.259Z,4976.00
2018-06-18T05:25:33.201Z,5416.00
2018-06-18T05:26:33.157Z,6092.00
2018-06-18T05:27:33.106Z,6932.00
2018-06-18T05:28:33.111Z,7824.00
2018-06-18T05:29:33.042Z,8300.00
2018-06-18T05:30:33.013Z,8292.00
2018-06-18T05:31:33.003Z,7936.00
2018-06-18T05:32:32.950Z,7380.00
2018-06-18T05:33:32.908Z,6860.00
2018-06-18T05:34:32.894Z,6484.00
2018-06-18T05:35:32.850Z,6336.00
2018-06-18T05:36:32.829Z,6424.00
2018-06-18T05:37:32.784Z,6796.00
2018-06-18T05:38:32.751Z,7112.00
2018-06-18T05:39:32.703Z,7156.00
2018-06-18T05:40:32.699Z,6940.00
2018-06-18T05:41:32.632Z,6564.00
2018-06-18T05:42:32.610Z,6276.00
2018-06-18T05:43:32.598Z,6264.00
2018-06-18T05:44:32.538Z,6596.00
2018-06-18T05:45:32.538Z,7156.00
2018-06-18T05:46:32.485Z,7600.00
2018-06-18T05:47:32.475Z,7744.00
2018-06-18T05:48:32.480Z,7576.00
2018-06-18T05:49:32.388Z,7140.00
2018-06-18T05:50:32.407Z,6544.00
2018-06-18T05:51:32.306Z,6040.00
2018-06-18T05:52:32.327Z,5704.00
2018-06-18T05:53:32.239Z,5516.00
2018-06-18T05:54:32.224Z,5388.00
2018-06-18T05:55:32.187Z,5308.00
2018-06-18T05:56:32.139Z,5296.00
2018-06-18T05:57:32.128Z,5448.00
2018-06-18T05:58:32.160Z,6040.00
2018-06-18T05:59:32.043Z,7252.00
2018-06-18T06:00:32.030Z,8928.00
2018-06-18T06:01:31.984Z,10932.00
2018-06-18T06:02:31.996Z,12704.00
2018-06-18T06:03:31.912Z,13812.00
2018-06-18T06:04:31.909Z,13572.00
2018-06-18T06:05:31.865Z,12412.00
2018-06-18T06:06:31.823Z,10864.00
2018-06-18T06:07:32.647Z,9720.00
2018-06-18T06:08:31.748Z,9068.00
2018-06-18T06:09:31.762Z,9060.00
2018-06-18T06:10:31.680Z,9848.00
2018-06-18T06:11:31.675Z,11436.00
2018-06-18T06:12:31.634Z,13496.00
2018-06-18T06:13:31.610Z,15480.00
2018-06-18T06:14:31.581Z,17124.00
2018-06-18T06:15:31.523Z,18880.00
2018-06-18T06:16:31.491Z,19968.00
2018-06-18T06:17:31.465Z,20352.00
2018-06-18T06:18:31.456Z,19744.00
2018-06-18T06:19:31.505Z,18656.00
2018-06-18T06:20:31.377Z,17728.00
2018-06-18T06:21:31.349Z,17368.00
2018-06-18T06:22:31.356Z,18048.00
2018-06-18T06:23:31.280Z,19168.00
2018-06-18T06:24:31.232Z,19808.00
2018-06-18T06:25:31.207Z,19328.00
2018-06-18T06:26:31.192Z,18036.00
2018-06-18T06:27:31.134Z,16996.00
2018-06-18T06:28:31.102Z,16392.00
2018-06-18T06:29:31.138Z,15948.00
2018-06-18T06:30:31.038Z,15744.00
2018-06-18T06:31:31.034Z,16356.00
2018-06-18T06:32:31.038Z,17468.00
2018-06-18T06:33:30.956Z,18896.00
2018-06-18T06:34:30.948Z,21184.00
2018-06-18T06:35:30.875Z,19540.00
2018-06-18T06:36:30.838Z,19596.00
2018-06-18T06:37:30.883Z,19812.00
2018-06-18T06:38:30.800Z,20448.00
2018-06-18T06:39:30.751Z,20576.00
2018-06-18T06:40:30.731Z,20384.00
2018-06-18T06:41:30.689Z,21568.00
2018-06-18T06:42:30.648Z,22656.00
2018-06-18T06:43:30.625Z,23456.00
2018-06-18T06:44:30.620Z,23712.00
2018-06-18T06:45:30.564Z,23904.00
2018-06-18T06:46:30.529Z,24192.00
2018-06-18T06:47:30.507Z,24352.00
2018-06-18T06:48:30.472Z,26432.00
2018-06-18T06:49:30.462Z,32384.00
2018-06-18T06:50:30.396Z,35328.00
2018-06-18T06:51:30.371Z,35552.00
2018-06-18T06:52:30.342Z,36352.00
2018-06-18T06:53:30.314Z,39552.00
2018-06-18T06:54:30.303Z,38880.00
2018-06-18T06:55:30.238Z,50784.00
2018-06-18T06:56:30.237Z,62048.00
2018-06-18T06:57:30.189Z,55936.00
2018-06-18T06:58:30.158Z,64960.00
2018-06-18T06:59:30.139Z,69984.00
2018-06-18T07:00:30.099Z,59264.00
2018-06-18T07:01:30.055Z,75968.00
2018-06-18T07:02:31.433Z,87136.00
2018-06-18T07:03:30.562Z,91488.00
2018-06-18T07:04:30.547Z,107040.00
2018-06-18T07:05:30.449Z,56096.00
2018-06-18T07:06:29.935Z,45024.00
2018-06-18T07:07:29.882Z,47808.00
2018-06-18T07:08:29.846Z,32544.00
2018-06-18T07:09:29.899Z,31776.00
2018-06-18T07:10:29.840Z,32256.00
2018-06-18T07:11:29.766Z,32864.00
2018-06-18T07:12:29.862Z,38368.00
2018-06-18T07:13:29.796Z,50880.00
2018-06-18T07:14:29.692Z,84288.00
2018-06-18T07:15:29.656Z,70048.00
2018-06-18T07:16:29.618Z,48736.00
2018-06-18T07:17:29.594Z,36960.00
2018-06-18T07:18:29.601Z,36928.00
2018-06-18T07:19:29.594Z,35488.00
2018-06-18T07:20:29.526Z,72736.00
2018-06-18T07:21:29.475Z,104096.00
2018-06-18T07:22:29.475Z,75392.00
2018-06-18T07:23:30.069Z,37472.00
2018-06-18T07:24:29.400Z,44352.00
2018-06-18T07:25:29.435Z,99200.00
2018-06-18T07:26:29.396Z,77600.00
2018-06-18T07:27:29.352Z,52800.00
2018-06-18T07:28:29.375Z,66048.00
2018-06-18T07:29:29.362Z,106272.00
2018-06-18T07:30:29.323Z,104032.00
2018-06-18T07:31:29.217Z,35712.00
2018-06-18T07:32:29.204Z,99840.00
2018-06-18T07:33:29.162Z,104960.00
2018-06-18T07:34:29.137Z,64576.00
2018-06-18T07:35:29.114Z,34848.00
2018-06-18T07:36:29.085Z,35232.00
2018-06-18T07:37:29.077Z,38400.00
2018-06-18T07:38:29.068Z,41312.00
2018-06-18T07:39:29.074Z,48352.00
2018-06-18T07:40:29.017Z,68352.00
2018-06-18T07:41:28.963Z,71968.00
2018-06-18T07:42:28.932Z,87776.00
2018-06-18T07:43:28.915Z,82400.00
2018-06-18T07:44:28.868Z,94400.00
2018-06-18T07:45:28.959Z,81664.00
2018-06-18T07:46:28.836Z,66592.00
2018-06-18T07:47:28.897Z,70688.00
2018-06-18T07:48:28.809Z,65056.00
2018-06-18T07:49:28.769Z,61920.00
2018-06-18T07:50:28.752Z,56288.00
2018-06-18T07:51:28.746Z,56768.00
2018-06-18T07:52:28.669Z,45120.00
2018-06-18T07:53:28.680Z,43776.00
2018-06-18T07:54:28.622Z,44064.00
2018-06-18T07:55:28.631Z,44640.00
2018-06-18T07:56:28.596Z,46656.00
2018-06-18T07:57:28.605Z,50272.00
2018-06-18T07:58:28.527Z,52576.00
2018-06-18T07:59:28.517Z,53728.00
2018-06-18T08:00:28.506Z,65792.00
2018-06-18T08:01:28.520Z,55552.00
2018-06-18T08:02:28.452Z,56416.00
2018-06-18T08:03:28.424Z,57088.00
2018-06-18T08:04:28.415Z,59840.00
2018-06-18T08:05:28.361Z,53152.00
2018-06-18T08:06:28.328Z,54752.00
2018-06-18T08:07:28.314Z,52416.00
2018-06-18T08:08:28.305Z,51392.00
2018-06-18T08:09:28.344Z,52704.00
2018-06-18T08:10:28.280Z,58560.00
2018-06-18T08:11:28.225Z,59776.00
2018-06-18T08:12:28.187Z,54784.00
2018-06-18T08:13:28.147Z,50240.00
2018-06-18T08:14:28.133Z,45152.00
2018-06-18T08:15:28.138Z,43968.00
2018-06-18T08:16:28.086Z,45856.00
2018-06-18T08:17:28.055Z,58560.00
2018-06-18T08:18:28.047Z,49120.00
2018-06-18T08:19:28.026Z,51264.00
2018-06-18T08:20:27.988Z,76864.00
2018-06-18T08:21:27.943Z,82976.00
2018-06-18T08:22:27.945Z,107072.00
2018-06-18T08:23:27.887Z,88064.00
2018-06-18T08:24:27.901Z,75392.00
2018-06-18T08:25:27.862Z,70496.00
2018-06-18T08:26:27.832Z,68768.00
2018-06-18T08:27:27.814Z,61376.00
2018-06-18T08:28:27.821Z,54080.00
2018-06-18T08:29:27.863Z,49504.00
2018-06-18T08:30:27.759Z,45344.00
2018-06-18T08:31:27.721Z,44224.00
2018-06-18T08:32:27.705Z,45536.00
2018-06-18T08:33:27.662Z,48768.00
2018-06-18T08:34:27.634Z,53728.00
2018-06-18T08:35:27.604Z,99968.00
2018-06-18T08:36:27.585Z,100096.00
2018-06-18T08:37:27.567Z,64960.00
2018-06-18T08:38:27.520Z,87840.00
2018-06-18T08:39:27.485Z,110752.00
2018-06-18T08:40:27.476Z,97376.00
2018-06-18T08:41:27.469Z,77568.00
2018-06-18T08:42:27.420Z,73920.00
2018-06-18T08:43:27.401Z,64800.00
2018-06-18T08:44:27.383Z,51872.00
2018-06-18T08:45:27.352Z,50720.00
2018-06-18T08:46:27.325Z,51808.00
2018-06-18T08:47:27.318Z,52736.00
2018-06-18T08:48:27.278Z,57248.00
2018-06-18T08:49:27.248Z,72480.00
2018-06-18T08:50:27.241Z,64352.00
2018-06-18T08:51:27.199Z,73504.00
2018-06-18T08:52:27.191Z,73984.00
2018-06-18T08:53:27.170Z,69632.00
2018-06-18T08:54:27.125Z,84928.00
2018-06-18T08:55:27.101Z,109472.00
2018-06-18T08:56:27.062Z,72416.00
2018-06-18T08:57:27.052Z,66400.00
2018-06-18T08:58:27.040Z,68160.00
2018-06-18T08:59:26.991Z,72768.00
2018-06-18T09:00:26.987Z,74528.00
2018-06-18T09:01:26.967Z,69376.00
2018-06-18T09:02:26.929Z,67456.00
2018-06-18T09:03:26.919Z,60704.00
2018-06-18T09:04:26.870Z,54400.00
2018-06-18T09:05:26.856Z,44640.00
2018-06-18T09:06:26.846Z,41088.00
2018-06-18T09:07:26.803Z,38688.00
2018-06-18T09:08:26.767Z,37984.00
2018-06-18T09:09:26.760Z,39232.00
2018-06-18T09:10:26.772Z,41184.00
2018-06-18T09:11:26.694Z,37664.00
2018-06-18T09:12:26.696Z,40480.00
2018-06-18T09:13:26.648Z,61056.00
2018-06-18T09:14:26.620Z,52960.00
2018-06-18T09:15:26.615Z,92768.00
2018-06-18T09:16:26.589Z,89664.00
2018-06-18T09:17:26.555Z,87776.00
2018-06-18T09:18:26.533Z,109600.00
2018-06-18T09:19:26.496Z,100736.00
2018-06-18T09:20:26.480Z,98080.00
2018-06-18T09:21:26.438Z,87936.00
2018-06-18T09:22:26.434Z,90080.00
2018-06-18T09:23:26.406Z,116224.00
2018-06-18T09:24:26.382Z,64640.00
2018-06-18T09:25:26.356Z,51552.00
2018-06-18T09:26:27.176Z,46944.00
2018-06-18T09:27:26.302Z,40320.00
2018-06-18T09:28:26.286Z,34528.00
2018-06-18T09:29:26.251Z,32608.00
2018-06-18T09:30:26.223Z,34432.00
2018-06-18T09:31:26.197Z,37952.00
2018-06-18T09:32:26.297Z,46080.00
2018-06-18T09:33:26.164Z,46816.00
2018-06-18T09:34:26.122Z,46176.00
2018-06-18T09:35:26.126Z,70784.00
2018-06-18T09:36:26.099Z,103648.00
2018-06-18T09:37:26.059Z,114592.00
2018-06-18T09:38:26.035Z,93728.00
2018-06-18T09:39:26.019Z,138496.00
2018-06-18T09:40:26.009Z,111904.00
2018-06-18T09:41:25.967Z,75648.00
2018-06-18T09:42:25.941Z,92192.00
2018-06-18T09:43:25.902Z,93536.00
2018-06-18T09:44:25.880Z,79360.00
2018-06-18T09:45:25.862Z,138080.00
2018-06-18T09:46:25.833Z,111744.00
2018-06-18T09:47:25.818Z,76320.00
2018-06-18T09:48:25.798Z,61984.00
2018-06-18T09:49:25.771Z,117120.00
2018-06-18T09:50:25.756Z,122016.00
2018-06-18T09:51:25.722Z,44992.00
2018-06-18T09:52:25.685Z,47968.00
2018-06-18T09:53:25.677Z,92928.00
2018-06-18T09:54:25.640Z,61888.00
2018-06-18T09:55:25.620Z,71232.00
2018-06-18T09:56:25.591Z,79968.00
2018-06-18T09:57:25.569Z,65792.00
2018-06-18T09:58:25.549Z,65696.00
2018-06-18T09:59:25.513Z,80288.00
2018-06-18T10:00:25.549Z,129888.00
2018-06-18T10:01:25.485Z,79904.00
2018-06-18T10:02:25.477Z,83616.00
2018-06-18T10:03:25.429Z,84384.00
2018-06-18T10:04:25.405Z,141216.00
2018-06-18T10:05:25.366Z,96416.00
2018-06-18T10:06:25.358Z,68512.00
2018-06-18T10:07:25.340Z,68576.00
2018-06-18T10:08:25.508Z,63328.00
2018-06-18T10:09:25.287Z,56320.00
2018-06-18T10:10:25.335Z,56320.00
2018-06-18T10:11:25.233Z,69504.00
2018-06-18T10:12:25.222Z,90656.00
2018-06-18T10:13:25.185Z,89536.00
2018-06-18T10:14:25.185Z,115936.00
2018-06-18T10:15:25.171Z,119616.00
2018-06-18T10:16:25.119Z,98400.00
2018-06-18T10:17:25.112Z,47040.00
2018-06-18T10:18:25.086Z,39776.00
2018-06-18T10:19:25.052Z,38432.00
2018-06-18T10:20:25.055Z,41408.00
2018-06-18T10:21:25.025Z,36288.00
2018-06-18T10:22:25.078Z,36000.00
2018-06-18T10:23:24.956Z,35776.00
2018-06-18T10:24:24.969Z,37088.00
2018-06-18T10:25:24.928Z,41120.00
2018-06-18T10:26:24.915Z,52640.00
2018-06-18T10:27:24.873Z,51616.00
2018-06-18T10:28:24.866Z,89824.00
2018-06-18T10:29:24.818Z,157088.00
2018-06-18T10:30:24.820Z,158912.00
2018-06-18T10:31:24.782Z,159104.00
2018-06-18T10:32:24.750Z,85056.00
2018-06-18T10:33:24.723Z,170784.00
2018-06-18T10:34:24.721Z,166976.00
2018-06-18T10:35:24.675Z,62496.00
2018-06-18T10:36:24.660Z,90560.00
2018-06-18T10:37:24.633Z,114496.00
2018-06-18T10:38:24.604Z,162688.00
2018-06-18T10:39:24.660Z,67584.00
2018-06-18T10:40:24.583Z,139360.00
2018-06-18T10:41:24.531Z,101184.00
2018-06-18T10:42:24.535Z,149440.00
2018-06-18T10:43:24.473Z,137664.00
2018-06-18T10:44:24.460Z,155296.00
2018-06-18T10:45:24.469Z,156192.00
2018-06-18T10:46:24.435Z,124256.00
2018-06-18T10:47:24.416Z,70688.00
2018-06-18T10:48:24.360Z,42304.00
2018-06-18T10:49:24.338Z,42208.00
2018-06-18T10:50:24.325Z,47424.00
2018-06-18T10:51:24.295Z,46048.00
2018-06-18T10:52:24.285Z,50304.00
2018-06-18T10:53:24.258Z,128384.00
2018-06-18T10:54:24.238Z,49696.00
2018-06-18T10:55:24.187Z,42240.00
2018-06-18T10:56:24.181Z,38176.00
2018-06-18T10:57:24.152Z,38656.00
2018-06-18T10:58:24.133Z,40864.00
2018-06-18T10:59:24.156Z,46144.00
2018-06-18T11:00:24.082Z,91520.00
2018-06-18T11:01:24.070Z,128224.00
2018-06-18T11:02:24.047Z,74496.00
2018-06-18T11:03:24.043Z,34816.00
2018-06-18T11:04:24.001Z,34432.00
2018-06-18T11:05:23.970Z,41824.00
2018-06-18T11:06:23.955Z,40672.00
2018-06-18T11:07:23.934Z,142432.00
2018-06-18T11:08:23.901Z,132832.00
2018-06-18T11:09:23.875Z,149248.00
2018-06-18T11:10:23.864Z,126880.00
2018-06-18T11:11:23.836Z,135104.00
2018-06-18T11:12:23.805Z,137728.00
2018-06-18T11:13:23.791Z,48960.00
2018-06-18T11:14:23.774Z,154176.00
2018-06-18T11:15:23.733Z,96384.00
2018-06-18T11:16:23.908Z,48064.00
2018-06-18T11:17:24.026Z,44128.00
2018-06-18T11:18:23.688Z,42528.00
2018-06-18T11:19:23.681Z,81152.00
2018-06-18T11:20:23.622Z,40576.00
2018-06-18T11:21:23.607Z,39232.00
2018-06-18T11:22:23.564Z,39648.00
2018-06-18T11:23:23.540Z,43136.00
2018-06-18T11:24:23.550Z,45088.00
2018-06-18T11:25:23.516Z,148192.00
2018-06-18T11:26:23.524Z,46080.00
2018-06-18T11:27:23.500Z,49984.00
2018-06-18T11:28:23.462Z,81856.00
2018-06-18T11:29:23.419Z,136832.00
2018-06-18T11:30:23.382Z,105696.00
2018-06-18T11:31:23.410Z,71168.00
2018-06-18T11:32:23.396Z,94784.00
2018-06-18T11:33:23.318Z,137216.00
2018-06-18T11:34:23.299Z,119040.00
2018-06-18T11:35:23.290Z,128800.00
2018-06-18T11:36:23.258Z,144736.00
2018-06-18T11:37:23.219Z,137504.00
2018-06-18T11:38:23.211Z,78304.00
2018-06-18T11:39:23.287Z,39904.00
2018-06-18T11:40:23.162Z,60384.00
2018-06-18T11:41:23.121Z,52736.00
2018-06-18T11:42:23.165Z,91872.00
2018-06-18T11:43:23.162Z,92192.00
2018-06-18T11:44:23.080Z,72992.00
2018-06-18T11:45:23.024Z,68288.00
2018-06-18T11:46:23.032Z,78368.00
2018-06-18T11:47:22.980Z,59296.00
2018-06-18T11:48:22.961Z,77920.00
2018-06-18T11:49:23.055Z,51136.00
2018-06-18T11:50:22.905Z,50816.00
2018-06-18T11:51:22.910Z,45696.00
2018-06-18T11:52:22.890Z,42944.00
2018-06-18T11:53:22.892Z,41536.00
2018-06-18T11:54:22.859Z,42688.00
2018-06-18T11:55:22.825Z,73920.00
2018-06-18T11:56:22.804Z,43296.00
2018-06-18T11:57:22.765Z,52320.00
2018-06-18T11:58:22.783Z,42720.00
2018-06-18T11:59:22.734Z,43872.00
2018-06-18T12:00:22.717Z,44320.00
2018-06-18T12:01:22.679Z,44864.00
2018-06-18T12:02:22.654Z,43712.00
2018-06-18T12:03:22.651Z,42976.00
2018-06-18T12:04:22.616Z,43520.00
2018-06-18T12:05:22.574Z,43584.00
2018-06-18T12:06:22.545Z,44032.00
2018-06-18T12:07:22.605Z,44416.00